createdAt,value
2019-05-02T00:01:49.544Z,37.33
2019-05-02T00:04:21.025Z,39.73
2019-05-02T00:07:07.349Z,36.67
2019-05-02T00:09:42.501Z,41.63
2019-05-02T00:12:11.712Z,41.20
2019-05-02T00:14:42.062Z,37.90
2019-05-02T00:17:11.988Z,37.43
2019-05-02T00:19:45.041Z,40.87
2019-05-02T00:22:17.191Z,44.47
2019-05-02T00:24:44.285Z,43.23
2019-05-02T00:27:14.111Z,39.63
2019-05-02T00:29:43.660Z,40.40
2019-05-02T00:32:13.616Z,42.67
2019-05-02T00:34:43.562Z,41.03
2019-05-02T00:37:14.132Z,40.30
2019-05-02T00:39:45.145Z,40.13
2019-05-02T00:42:17.642Z,41.03
2019-05-02T00:44:46.842Z,39.63
2019-05-02T00:47:31.651Z,37.30
2019-05-02T00:50:01.655Z,34.57
2019-05-02T00:52:32.921Z,40.23
2019-05-02T00:55:02.903Z,34.07
2019-05-02T00:57:32.523Z,39.63
2019-05-02T01:00:02.110Z,41.40
2019-05-02T01:02:45.919Z,35.30
2019-05-02T01:05:15.108Z,39.43
2019-05-02T01:07:44.370Z,39.00
2019-05-02T01:10:17.238Z,40.33
2019-05-02T01:12:46.171Z,35.53
2019-05-02T01:15:15.924Z,37.57
2019-05-02T01:17:45.838Z,38.20
2019-05-02T01:20:15.430Z,34.53
2019-05-02T01:22:47.099Z,38.70
2019-05-02T01:25:17.256Z,36.37
2019-05-02T01:28:05.788Z,38.43
2019-05-02T01:31:00.186Z,36.80
2019-05-02T01:33:45.072Z,34.33
2019-05-02T01:36:19.602Z,39.47
2019-05-02T01:38:50.546Z,38.37
2019-05-02T01:41:24.058Z,32.90
2019-05-02T01:43:54.919Z,32.37
2019-05-02T01:46:24.205Z,33.53
2019-05-02T01:48:54.645Z,39.90
2019-05-02T01:51:24.238Z,31.40
2019-05-02T01:53:53.898Z,37.67
2019-05-02T01:56:23.500Z,36.30
2019-05-02T01:58:53.125Z,40.40
2019-05-02T02:01:23.943Z,40.33
2019-05-02T02:03:53.828Z,39.10
2019-05-02T02:06:23.482Z,41.67
2019-05-02T02:08:52.685Z,37.80
2019-05-02T02:11:22.309Z,42.57
2019-05-02T02:13:51.886Z,40.03
2019-05-02T02:16:21.495Z,38.17
2019-05-02T02:18:58.978Z,37.47
2019-05-02T02:21:35.925Z,38.60
2019-05-02T02:24:27.810Z,36.37
2019-05-02T02:26:57.344Z,36.60
2019-05-02T02:29:26.991Z,37.63
2019-05-02T02:31:56.573Z,36.40
2019-05-02T02:34:29.091Z,32.13
2019-05-02T02:36:57.538Z,33.70
2019-05-02T02:39:26.824Z,35.50
2019-05-02T02:41:56.826Z,29.63
2019-05-02T02:44:42.719Z,34.70
2019-05-02T02:47:18.718Z,30.73
2019-05-02T02:49:44.393Z,35.07
2019-05-02T02:52:14.313Z,31.97
2019-05-02T02:54:44.971Z,32.80
2019-05-02T02:57:25.696Z,31.70
2019-05-02T02:59:45.920Z,29.40
2019-05-02T03:02:15.212Z,32.43
2019-05-02T03:04:46.406Z,30.93
2019-05-02T03:07:24.048Z,30.30
2019-05-02T03:09:48.025Z,31.23
2019-05-02T03:12:41.371Z,27.93
2019-05-02T03:15:11.086Z,29.90
2019-05-02T03:17:41.011Z,29.23
2019-05-02T03:20:10.200Z,30.50
2019-05-02T03:22:41.777Z,31.17
2019-05-02T03:25:17.926Z,28.67
2019-05-02T03:27:42.977Z,29.87
2019-05-02T03:30:29.776Z,29.43
2019-05-02T03:33:02.494Z,29.07
2019-05-02T03:35:18.944Z,26.03
2019-05-02T03:37:51.465Z,27.33
2019-05-02T03:40:17.509Z,27.80
2019-05-02T03:42:47.704Z,31.70
2019-05-02T03:45:17.527Z,29.00
2019-05-02T03:47:47.053Z,28.13
2019-05-02T03:50:17.284Z,27.37
2019-05-02T03:52:46.910Z,30.37
2019-05-02T03:55:16.752Z,32.07
2019-05-02T03:57:45.957Z,28.97
2019-05-02T04:00:21.115Z,26.03
2019-05-02T04:02:59.082Z,24.60
2019-05-02T04:05:18.850Z,28.77
2019-05-02T04:07:48.956Z,29.20
2019-05-02T04:10:38.285Z,27.40
2019-05-02T04:13:08.321Z,26.17
2019-05-02T04:15:37.968Z,27.90
2019-05-02T04:18:14.498Z,25.27
2019-05-02T04:20:43.662Z,22.83
2019-05-02T04:23:11.155Z,23.07
2019-05-02T04:25:41.022Z,28.13
2019-05-02T04:28:11.937Z,22.13
2019-05-02T04:30:45.223Z,20.57
2019-05-02T04:33:13.662Z,21.60
2019-05-02T04:35:43.591Z,20.27
2019-05-02T04:38:20.295Z,21.03
2019-05-02T04:40:46.366Z,20.17
2019-05-02T04:43:18.210Z,17.93
2019-05-02T04:45:55.567Z,19.80
2019-05-02T04:48:18.594Z,20.87
2019-05-02T04:50:48.838Z,16.93
2019-05-02T04:53:24.882Z,18.20
2019-05-02T04:56:01.818Z,17.77
2019-05-02T04:58:28.002Z,20.20
2019-05-02T05:00:57.997Z,20.50
2019-05-02T05:03:24.241Z,18.33
2019-05-02T05:06:01.554Z,17.03
2019-05-02T05:08:27.621Z,15.73
2019-05-02T05:10:57.501Z,16.90
2019-05-02T05:13:29.079Z,17.10
2019-05-02T05:15:58.445Z,15.87
2019-05-02T05:18:28.078Z,14.80
2019-05-02T05:20:57.921Z,14.47
2019-05-02T05:23:47.108Z,17.53
2019-05-02T05:26:17.473Z,17.80
2019-05-02T05:28:47.696Z,17.27
2019-05-02T05:31:23.999Z,18.87
2019-05-02T05:33:49.297Z,18.57
2019-05-02T05:36:20.062Z,14.30
2019-05-02T05:38:49.859Z,15.90
2019-05-02T05:41:23.141Z,14.10
2019-05-02T05:43:53.598Z,19.27
2019-05-02T05:46:23.644Z,23.33
2019-05-02T05:48:53.474Z,19.73
2019-05-02T05:51:23.010Z,17.70
2019-05-02T05:53:56.424Z,16.93
2019-05-02T05:56:23.517Z,19.23
2019-05-02T05:58:53.195Z,18.23
2019-05-02T06:01:26.015Z,18.90
2019-05-02T06:03:54.138Z,17.33
2019-05-02T06:06:24.548Z,17.20
2019-05-02T06:08:55.402Z,18.67
2019-05-02T06:11:25.345Z,17.53
2019-05-02T06:13:54.594Z,18.10
2019-05-02T06:16:23.855Z,18.33
2019-05-02T06:18:53.473Z,19.30
2019-05-02T06:21:23.068Z,18.70
2019-05-02T06:23:53.100Z,18.70
2019-05-02T06:26:22.380Z,19.27
2019-05-02T06:28:52.459Z,19.00
2019-05-02T06:31:22.586Z,20.70
2019-05-02T06:33:52.254Z,21.50
2019-05-02T06:36:22.225Z,27.67
2019-05-02T06:38:52.088Z,20.70
2019-05-02T06:41:23.072Z,21.73
2019-05-02T06:43:52.712Z,25.67
2019-05-02T06:46:27.720Z,23.03
2019-05-02T06:48:53.686Z,20.97
2019-05-02T06:51:24.280Z,23.67
2019-05-02T06:53:53.965Z,21.90
2019-05-02T06:56:23.236Z,19.83
2019-05-02T06:58:52.876Z,17.80
2019-05-02T07:01:22.948Z,20.90
2019-05-02T07:03:53.220Z,19.40
2019-05-02T07:06:23.257Z,17.17
2019-05-02T07:08:53.291Z,20.77
2019-05-02T07:11:22.938Z,18.80
2019-05-02T07:13:52.241Z,21.40
2019-05-02T07:16:37.624Z,17.60
2019-05-02T07:19:06.700Z,17.80
2019-05-02T07:21:36.318Z,20.40
2019-05-02T07:24:06.374Z,18.37
2019-05-02T07:26:35.607Z,20.47
2019-05-02T07:29:05.502Z,16.77
2019-05-02T07:31:35.370Z,15.63
2019-05-02T07:34:07.949Z,14.30
2019-05-02T07:36:38.217Z,15.63
2019-05-02T07:39:07.965Z,18.73
2019-05-02T07:41:37.559Z,15.67
2019-05-02T07:44:07.421Z,15.77
2019-05-02T07:46:50.700Z,15.97
2019-05-02T07:49:09.127Z,13.47
2019-05-02T07:51:39.142Z,13.87
2019-05-02T07:54:08.724Z,16.77
2019-05-02T07:56:38.620Z,13.23
2019-05-02T07:59:08.639Z,13.77
2019-05-02T08:01:37.913Z,16.20
2019-05-02T08:04:11.151Z,14.50
2019-05-02T08:06:40.240Z,13.17
2019-05-02T08:09:11.330Z,14.80
2019-05-02T08:11:41.020Z,16.60
2019-05-02T08:14:11.580Z,19.47
2019-05-02T08:16:41.244Z,15.10
2019-05-02T08:19:11.268Z,17.13
2019-05-02T08:21:40.871Z,14.87
2019-05-02T08:24:10.496Z,18.73
2019-05-02T08:26:59.655Z,15.57
2019-05-02T08:29:30.766Z,14.77
2019-05-02T08:32:00.502Z,18.60
2019-05-02T08:34:32.369Z,16.73
2019-05-02T08:37:04.588Z,17.13
2019-05-02T08:39:35.046Z,16.70
2019-05-02T08:42:05.095Z,16.50
2019-05-02T08:44:34.803Z,15.77
2019-05-02T08:47:04.137Z,16.43
2019-05-02T08:49:33.822Z,15.57
2019-05-02T08:52:03.113Z,16.87
2019-05-02T08:54:32.988Z,16.60
2019-05-02T08:57:03.712Z,17.70
2019-05-02T08:59:33.451Z,16.13
2019-05-02T09:02:03.340Z,19.40
2019-05-02T09:04:33.298Z,17.60
2019-05-02T09:07:02.853Z,16.37
2019-05-02T09:09:32.429Z,17.83
2019-05-02T09:12:11.971Z,17.47
2019-05-02T09:14:33.944Z,14.63
2019-05-02T09:17:08.458Z,14.17
2019-05-02T09:19:35.170Z,15.70
2019-05-02T09:22:07.456Z,14.30
2019-05-02T09:24:36.889Z,14.60
2019-05-02T09:27:06.492Z,15.20
2019-05-02T09:29:37.420Z,15.50
2019-05-02T09:32:06.974Z,15.03
2019-05-02T09:34:36.605Z,16.97
2019-05-02T09:37:06.632Z,13.70
2019-05-02T09:39:36.735Z,15.40
2019-05-02T09:42:10.920Z,15.47
2019-05-02T09:44:37.959Z,18.83
2019-05-02T09:47:07.159Z,15.83
2019-05-02T09:49:41.765Z,18.40
2019-05-02T09:52:08.716Z,13.90
2019-05-02T09:54:42.464Z,15.43
2019-05-02T09:57:12.021Z,17.23
2019-05-02T09:59:43.486Z,16.23
2019-05-02T10:02:12.637Z,14.47
2019-05-02T10:04:44.125Z,13.80
2019-05-02T10:07:15.303Z,14.23
2019-05-02T10:09:44.732Z,15.07
2019-05-02T10:12:14.225Z,12.47
2019-05-02T10:14:43.780Z,14.60
2019-05-02T10:17:13.454Z,12.83
2019-05-02T10:19:48.781Z,12.47
2019-05-02T10:22:14.635Z,15.50
2019-05-02T10:24:44.604Z,15.80
2019-05-02T10:27:14.133Z,13.30
2019-05-02T10:29:43.704Z,20.60
2019-05-02T10:32:16.670Z,20.70
2019-05-02T10:34:47.613Z,12.77
2019-05-02T10:37:16.148Z,13.90
2019-05-02T10:39:46.125Z,14.83
2019-05-02T10:42:15.708Z,11.60
2019-05-02T10:44:45.835Z,10.97
2019-05-02T10:47:15.442Z,13.60
2019-05-02T10:49:52.950Z,10.87
2019-05-02T10:52:29.773Z,12.27
2019-05-02T10:54:54.818Z,12.00
2019-05-02T10:57:24.153Z,12.67
2019-05-02T10:59:56.215Z,10.63
2019-05-02T11:02:54.353Z,11.77
2019-05-02T11:05:26.550Z,11.57
2019-05-02T11:07:56.850Z,14.87
2019-05-02T11:10:27.661Z,12.63
2019-05-02T11:13:05.913Z,10.77
2019-05-02T11:16:06.437Z,11.67
2019-05-02T11:18:52.668Z,11.23
2019-05-02T11:21:22.910Z,10.23
2019-05-02T11:23:52.756Z,12.63
2019-05-02T11:26:25.005Z,10.97
2019-05-02T11:28:53.785Z,11.20
2019-05-02T11:31:23.407Z,12.47
2019-05-02T11:33:53.156Z,12.77
2019-05-02T11:36:22.755Z,11.63
2019-05-02T11:39:00.419Z,13.47
2019-05-02T11:41:23.323Z,13.83
2019-05-02T11:43:55.783Z,12.53
2019-05-02T11:46:24.231Z,12.80
2019-05-02T11:48:58.048Z,14.80
2019-05-02T11:51:25.529Z,13.43
2019-05-02T11:53:59.457Z,12.20
2019-05-02T11:56:26.826Z,13.27
2019-05-02T11:58:56.750Z,10.50
2019-05-02T12:01:35.575Z,9.40
2019-05-02T12:03:57.745Z,13.10
2019-05-02T12:06:27.470Z,12.60
2019-05-02T12:08:57.460Z,10.53
2019-05-02T12:11:26.793Z,11.33
2019-05-02T12:13:57.098Z,11.37
2019-05-02T12:16:27.424Z,10.67
2019-05-02T12:19:08.656Z,11.13
2019-05-02T12:21:28.499Z,12.00
2019-05-02T12:23:57.759Z,11.90
2019-05-02T12:26:28.236Z,12.20
2019-05-02T12:28:58.068Z,13.30
2019-05-02T12:31:27.794Z,11.07
2019-05-02T12:33:58.751Z,11.10
2019-05-02T12:36:29.318Z,13.63
2019-05-02T12:38:58.972Z,12.07
2019-05-02T12:41:28.658Z,13.57
2019-05-02T12:43:58.762Z,11.87
2019-05-02T12:46:28.680Z,12.07
2019-05-02T12:48:58.911Z,10.97
2019-05-02T12:51:28.532Z,10.40
2019-05-02T12:53:58.752Z,11.97
2019-05-02T12:56:28.067Z,12.00
2019-05-02T12:58:57.438Z,12.97
2019-05-02T13:01:27.038Z,11.10
2019-05-02T13:04:04.168Z,10.57
2019-05-02T13:06:36.970Z,11.10
2019-05-02T13:09:12.671Z,11.77
2019-05-02T13:12:00.311Z,13.10
2019-05-02T13:14:32.238Z,10.30
2019-05-02T13:17:05.546Z,12.13
2019-05-02T13:19:40.588Z,12.50
2019-05-02T13:22:21.915Z,11.60
2019-05-02T13:24:57.620Z,10.33
2019-05-02T13:27:33.688Z,9.37
2019-05-02T13:29:58.828Z,7.90
2019-05-02T13:32:57.680Z,7.73
2019-05-02T13:35:43.589Z,9.17
2019-05-02T13:38:14.592Z,9.17
2019-05-02T13:40:45.367Z,9.13
2019-05-02T13:43:15.029Z,9.67
2019-05-02T13:46:06.373Z,10.37
2019-05-02T13:48:36.030Z,8.23
2019-05-02T13:51:05.719Z,10.63
2019-05-02T13:53:37.320Z,12.57
2019-05-02T13:56:24.567Z,8.43
2019-05-02T13:58:54.351Z,8.17
2019-05-02T14:01:24.324Z,8.67
2019-05-02T14:03:55.773Z,8.23
2019-05-02T14:06:30.270Z,7.77
2019-05-02T14:09:19.933Z,8.43
2019-05-02T14:11:57.848Z,8.47
2019-05-02T14:14:27.505Z,10.33
2019-05-02T14:16:57.519Z,8.97
2019-05-02T14:19:27.078Z,9.63
2019-05-02T14:21:56.781Z,10.83
2019-05-02T14:24:26.414Z,8.37
2019-05-02T14:26:55.999Z,8.53
2019-05-02T14:29:25.566Z,8.43
2019-05-02T14:31:55.134Z,12.80
2019-05-02T14:34:35.013Z,10.67
2019-05-02T14:37:04.955Z,9.87
2019-05-02T14:39:34.929Z,8.80
2019-05-02T14:42:04.578Z,10.30
2019-05-02T14:45:01.385Z,9.60
2019-05-02T14:47:05.153Z,10.47
2019-05-02T14:49:34.406Z,9.17
2019-05-02T14:52:07.043Z,9.50
2019-05-02T14:54:38.115Z,8.37
2019-05-02T14:57:11.766Z,8.17
2019-05-02T14:59:42.862Z,9.50
2019-05-02T15:02:34.147Z,11.03
2019-05-02T15:05:02.815Z,8.23
2019-05-02T15:07:32.432Z,12.37
2019-05-02T15:10:06.437Z,9.53
2019-05-02T15:12:33.731Z,7.43
2019-05-02T15:15:04.014Z,7.80
2019-05-02T15:17:37.725Z,9.90
2019-05-02T15:20:05.193Z,10.10
2019-05-02T15:22:37.429Z,8.17
2019-05-02T15:25:07.872Z,8.03
2019-05-02T15:27:42.017Z,7.30
2019-05-02T15:30:09.043Z,8.10
2019-05-02T15:32:54.239Z,8.83
2019-05-02T15:35:31.856Z,9.07
2019-05-02T15:38:06.553Z,11.30
2019-05-02T15:40:43.101Z,7.60
2019-05-02T15:43:09.163Z,9.73
2019-05-02T15:45:40.968Z,8.47
2019-05-02T15:48:07.388Z,7.60
2019-05-02T15:50:43.594Z,8.57
2019-05-02T15:53:29.129Z,12.27
2019-05-02T15:55:59.711Z,8.10
2019-05-02T15:58:30.042Z,10.67
2019-05-02T16:01:18.947Z,8.33
2019-05-02T16:03:52.242Z,7.30
2019-05-02T16:06:30.557Z,9.67
2019-05-02T16:08:54.000Z,7.90
2019-05-02T16:11:24.170Z,10.67
2019-05-02T16:13:56.265Z,8.03
2019-05-02T16:16:26.042Z,9.70
2019-05-02T16:18:55.941Z,10.40
2019-05-02T16:21:45.967Z,12.07
2019-05-02T16:24:24.887Z,8.70
2019-05-02T16:26:56.900Z,8.80
2019-05-02T16:29:28.308Z,9.10
2019-05-02T16:32:06.324Z,8.37
2019-05-02T16:34:54.165Z,18.23
2019-05-02T16:37:22.550Z,7.83
2019-05-02T16:39:52.330Z,13.13
2019-05-02T16:42:22.776Z,10.53
2019-05-02T16:44:54.607Z,7.90
2019-05-02T16:47:24.160Z,9.30
2019-05-02T16:49:56.468Z,8.30
2019-05-02T16:52:24.952Z,10.17
2019-05-02T16:54:54.571Z,12.80
2019-05-02T16:57:24.912Z,11.20
2019-05-02T17:00:01.269Z,8.17
2019-05-02T17:02:26.551Z,8.87
2019-05-02T17:05:00.234Z,15.47
2019-05-02T17:07:39.486Z,13.27
2019-05-02T17:10:20.253Z,9.67
2019-05-02T17:12:52.895Z,10.90
2019-05-02T17:15:31.147Z,11.17
2019-05-02T17:18:05.031Z,10.10
2019-05-02T17:20:32.156Z,10.40
2019-05-02T17:23:06.893Z,11.77
2019-05-02T17:25:33.145Z,9.57
2019-05-02T17:28:09.734Z,9.60
2019-05-02T17:30:39.104Z,9.43
2019-05-02T17:33:07.267Z,11.43
2019-05-02T17:35:36.672Z,16.57
2019-05-02T17:38:06.281Z,15.30
2019-05-02T17:40:36.774Z,11.20
2019-05-02T17:43:07.036Z,13.93
2019-05-02T17:45:38.751Z,12.47
2019-05-02T17:48:15.702Z,13.93
2019-05-02T17:50:59.468Z,14.53
2019-05-02T17:53:34.741Z,12.33
2019-05-02T17:56:01.899Z,11.53
2019-05-02T17:58:31.878Z,13.77
2019-05-02T18:01:03.669Z,19.00
2019-05-02T18:03:35.346Z,16.33
2019-05-02T18:06:07.498Z,14.30
2019-05-02T18:08:36.889Z,14.67
2019-05-02T18:11:06.553Z,15.37
2019-05-02T18:13:35.797Z,18.23
2019-05-02T18:16:07.695Z,15.57
2019-05-02T18:18:43.667Z,18.80
2019-05-02T18:21:10.064Z,13.77
2019-05-02T18:23:40.110Z,18.23
2019-05-02T18:26:11.488Z,17.00
2019-05-02T18:28:48.951Z,16.53
2019-05-02T18:31:13.153Z,17.27
2019-05-02T18:33:42.794Z,17.13
2019-05-02T18:36:17.465Z,21.87
2019-05-02T18:38:44.344Z,22.33
2019-05-02T18:41:14.219Z,20.97
2019-05-02T18:43:45.264Z,21.03
2019-05-02T18:46:15.076Z,30.57
2019-05-02T18:48:48.873Z,35.37
2019-05-02T18:51:18.902Z,28.00
2019-05-02T18:53:46.966Z,23.97
2019-05-02T18:56:16.838Z,24.00
2019-05-02T18:58:46.857Z,29.43
2019-05-02T19:01:18.494Z,21.10
2019-05-02T19:03:52.646Z,21.40
2019-05-02T19:06:19.610Z,23.40
2019-05-02T19:08:50.268Z,23.00
2019-05-02T19:11:22.145Z,23.40
2019-05-02T19:13:52.692Z,19.73
2019-05-02T19:16:25.003Z,20.00
2019-05-02T19:18:57.397Z,20.40
2019-05-02T19:21:31.027Z,22.23
2019-05-02T19:23:58.374Z,24.77
2019-05-02T19:26:29.987Z,19.73
2019-05-02T19:29:15.678Z,17.67
2019-05-02T19:31:52.663Z,19.40
2019-05-02T19:34:26.581Z,19.30
2019-05-02T19:36:57.901Z,23.07
2019-05-02T19:39:26.181Z,20.60
2019-05-02T19:41:56.216Z,20.43
2019-05-02T19:44:28.800Z,18.63
2019-05-02T19:46:57.184Z,15.23
2019-05-02T19:49:26.821Z,19.30
2019-05-02T19:51:58.185Z,19.60
2019-05-02T19:54:31.721Z,18.67
2019-05-02T19:56:58.952Z,19.23
2019-05-02T19:59:29.756Z,19.43
2019-05-02T20:02:04.326Z,16.77
2019-05-02T20:04:32.598Z,18.53
2019-05-02T20:07:01.975Z,19.90
2019-05-02T20:09:31.934Z,17.83
2019-05-02T20:12:06.209Z,18.80
2019-05-02T20:14:32.462Z,18.37
2019-05-02T20:17:02.445Z,16.33
2019-05-02T20:19:34.859Z,20.47
2019-05-02T20:22:11.752Z,23.10
2019-05-02T20:25:00.559Z,21.60
2019-05-02T20:27:29.540Z,17.23
2019-05-02T20:29:59.474Z,19.67
2019-05-02T20:32:29.628Z,19.73
2019-05-02T20:34:58.861Z,25.33
2019-05-02T20:37:28.546Z,20.37
2019-05-02T20:39:58.126Z,20.80
2019-05-02T20:42:28.469Z,19.57
2019-05-02T20:44:58.479Z,20.47
2019-05-02T20:47:28.107Z,18.70
2019-05-02T20:49:57.387Z,18.33
2019-05-02T20:52:27.215Z,17.93
2019-05-02T20:54:56.877Z,16.07
2019-05-02T20:57:26.158Z,18.53
2019-05-02T20:59:56.202Z,17.40
2019-05-02T21:02:26.266Z,23.83
2019-05-02T21:04:56.087Z,17.63
2019-05-02T21:07:47.388Z,17.17
2019-05-02T21:10:21.766Z,19.10
2019-05-02T21:12:52.613Z,17.43
2019-05-02T21:15:22.627Z,16.77
2019-05-02T21:17:52.209Z,17.17
2019-05-02T21:20:22.038Z,20.83
2019-05-02T21:22:53.018Z,15.87
2019-05-02T21:25:23.179Z,21.43
2019-05-02T21:27:53.471Z,17.30
2019-05-02T21:30:25.057Z,18.83
2019-05-02T21:32:54.724Z,18.17
2019-05-02T21:35:24.564Z,16.10
2019-05-02T21:37:54.222Z,20.87
2019-05-02T21:40:25.782Z,19.83
2019-05-02T21:42:55.772Z,18.27
2019-05-02T21:45:26.035Z,18.77
2019-05-02T21:47:55.969Z,20.97
2019-05-02T21:50:43.780Z,18.60
2019-05-02T21:53:34.720Z,21.20
2019-05-02T21:56:12.427Z,18.63
2019-05-02T21:59:02.840Z,20.30
2019-05-02T22:01:33.384Z,18.00
2019-05-02T22:04:03.889Z,18.57
2019-05-02T22:06:33.516Z,17.93
2019-05-02T22:09:04.092Z,17.17
2019-05-02T22:11:34.139Z,18.60
2019-05-02T22:14:03.400Z,18.90
2019-05-02T22:16:33.275Z,21.90
2019-05-02T22:19:03.081Z,19.73
2019-05-02T22:21:35.190Z,19.17
2019-05-02T22:24:11.231Z,19.23
2019-05-02T22:26:36.740Z,19.53
2019-05-02T22:29:06.681Z,17.37
2019-05-02T22:31:35.881Z,19.07
2019-05-02T22:34:05.587Z,20.27
2019-05-02T22:36:35.161Z,18.27
2019-05-02T22:39:23.424Z,20.00
2019-05-02T22:41:53.463Z,18.47
2019-05-02T22:44:23.106Z,17.03
2019-05-02T22:46:53.165Z,16.37
2019-05-02T22:49:23.435Z,17.43
2019-05-02T22:51:52.669Z,18.07
2019-05-02T22:54:27.762Z,16.97
2019-05-02T22:56:54.273Z,19.77
2019-05-02T22:59:24.076Z,16.30
2019-05-02T23:01:53.759Z,15.20
2019-05-02T23:04:23.842Z,15.67
2019-05-02T23:06:53.505Z,19.30
2019-05-02T23:09:23.186Z,16.33
2019-05-02T23:11:52.530Z,16.33
2019-05-02T23:14:22.379Z,15.27
2019-05-02T23:16:52.996Z,15.27
2019-05-02T23:19:23.134Z,14.73
2019-05-02T23:21:53.654Z,15.93
2019-05-02T23:24:44.694Z,20.23
2019-05-02T23:27:51.898Z,16.13
2019-05-02T23:30:24.212Z,18.23
2019-05-02T23:32:53.504Z,17.47
2019-05-02T23:35:23.130Z,19.53
2019-05-02T23:37:53.142Z,18.30
2019-05-02T23:40:23.155Z,19.70
2019-05-02T23:42:52.772Z,17.50
2019-05-02T23:45:22.715Z,21.93
2019-05-02T23:47:52.896Z,17.73
2019-05-02T23:50:23.025Z,18.67
2019-05-02T23:52:52.295Z,17.33
2019-05-02T23:55:22.841Z,17.70
2019-05-02T23:57:52.424Z,15.63
